sensor_id;sensor_type;location;lat;lon;timestamp;pressure;altitude;pressure_sealevel;temperature;humidity
77702;BME280;66868;42.708;23.404;2024-02-28T00:01:48;95518.47;;;9.69;74.70
77702;BME280;66868;42.708;23.404;2024-02-28T00:04:13;95516.63;;;9.56;75.58
77702;BME280;66868;42.708;23.404;2024-02-28T00:06:38;95519.44;;;9.50;76.09
77702;BME280;66868;42.708;23.404;2024-02-28T00:09:05;95524.47;;;9.32;76.26
77702;BME280;66868;42.708;23.404;2024-02-28T00:11:30;95496.78;;;9.12;76.99
77702;BME280;66868;42.708;23.404;2024-02-28T00:13:56;95532.34;;;9.44;76.35
77702;BME280;66868;42.708;23.404;2024-02-28T00:16:21;95529.53;;;9.50;75.82
77702;BME280;66868;42.708;23.404;2024-02-28T00:18:47;95530.44;;;9.49;76.36
77702;BME280;66868;42.708;23.404;2024-02-28T00:21:13;95533.88;;;9.48;76.12
77702;BME280;66868;42.708;23.404;2024-02-28T00:23:38;95530.25;;;9.35;76.14
77702;BME280;66868;42.708;23.404;2024-02-28T00:26:04;95519.84;;;9.23;76.31
77702;BME280;66868;42.708;23.404;2024-02-28T00:28:29;95523.13;;;9.25;75.62
77702;BME280;66868;42.708;23.404;2024-02-28T00:30:55;95536.56;;;9.26;75.65
77702;BME280;66868;42.708;23.404;2024-02-28T00:33:20;95538.16;;;9.28;76.53
77702;BME280;66868;42.708;23.404;2024-02-28T00:35:46;95527.50;;;9.22;76.93
77702;BME280;66868;42.708;23.404;2024-02-28T00:38:12;95522.81;;;9.14;77.13
77702;BME280;66868;42.708;23.404;2024-02-28T00:40:38;95509.25;;;8.79;79.07
77702;BME280;66868;42.708;23.404;2024-02-28T00:43:03;95517.81;;;8.77;79.16
77702;BME280;66868;42.708;23.404;2024-02-28T00:45:29;95524.13;;;8.67;79.62
77702;BME280;66868;42.708;23.404;2024-02-28T00:47:55;95523.16;;;8.69;79.30
77702;BME280;66868;42.708;23.404;2024-02-28T00:50:41;95523.56;;;8.60;79.89
77702;BME280;66868;42.708;23.404;2024-02-28T00:53:07;95503.34;;;8.62;79.90
77702;BME280;66868;42.708;23.404;2024-02-28T00:55:32;95525.09;;;8.83;79.98
77702;BME280;66868;42.708;23.404;2024-02-28T00:57:58;95525.78;;;8.86;79.73
77702;BME280;66868;42.708;23.404;2024-02-28T01:00:23;95522.22;;;8.91;80.03
77702;BME280;66868;42.708;23.404;2024-02-28T01:02:49;95532.53;;;8.86;79.92
77702;BME280;66868;42.708;23.404;2024-02-28T01:05:15;95535.59;;;8.93;79.76
77702;BME280;66868;42.708;23.404;2024-02-28T01:07:40;95527.94;;;8.94;79.94
77702;BME280;66868;42.708;23.404;2024-02-28T01:10:07;95540.63;;;8.93;80.27
77702;BME280;66868;42.708;23.404;2024-02-28T01:12:33;95517.44;;;8.84;80.15
77702;BME280;66868;42.708;23.404;2024-02-28T01:14:59;95543.72;;;8.99;79.98
77702;BME280;66868;42.708;23.404;2024-02-28T01:17:24;95511.31;;;8.90;80.57
77702;BME280;66868;42.708;23.404;2024-02-28T01:19:50;95505.59;;;8.86;80.04
77702;BME280;66868;42.708;23.404;2024-02-28T01:22:15;95528.56;;;8.99;80.07
77702;BME280;66868;42.708;23.404;2024-02-28T01:24:42;95479.53;;;8.67;79.83
77702;BME280;66868;42.708;23.404;2024-02-28T01:27:07;95503.38;;;8.79;80.08
77702;BME280;66868;42.708;23.404;2024-02-28T01:29:35;95542.94;;;8.97;80.30
77702;BME280;66868;42.708;23.404;2024-02-28T01:32:07;95530.31;;;8.97;79.53
77702;BME280;66868;42.708;23.404;2024-02-28T01:34:33;95538.59;;;9.01;79.73
77702;BME280;66868;42.708;23.404;2024-02-28T01:37:01;95542.06;;;8.98;79.60
77702;BME280;66868;42.708;23.404;2024-02-28T01:39:26;95524.97;;;8.86;79.62
77702;BME280;66868;42.708;23.404;2024-02-28T01:41:53;95530.88;;;8.85;79.73
77702;BME280;66868;42.708;23.404;2024-02-28T01:44:19;95549.38;;;8.85;79.52
77702;BME280;66868;42.708;23.404;2024-02-28T01:46:45;95550.41;;;8.81;79.46
77702;BME280;66868;42.708;23.404;2024-02-28T01:49:11;95552.53;;;8.72;79.78
77702;BME280;66868;42.708;23.404;2024-02-28T01:51:37;95556.06;;;8.68;79.79
77702;BME280;66868;42.708;23.404;2024-02-28T01:54:03;95527.69;;;8.44;80.05
77702;BME280;66868;42.708;23.404;2024-02-28T01:56:29;95549.41;;;8.47;80.21
77702;BME280;66868;42.708;23.404;2024-02-28T01:58:56;95553.34;;;8.33;80.55
77702;BME280;66868;42.708;23.404;2024-02-28T02:01:22;95555.88;;;8.33;80.50
77702;BME280;66868;42.708;23.404;2024-02-28T02:03:47;95557.31;;;8.39;80.36
77702;BME280;66868;42.708;23.404;2024-02-28T02:06:14;95476.44;;;7.84;81.01
77702;BME280;66868;42.708;23.404;2024-02-28T02:08:40;95550.31;;;8.25;80.76
77702;BME280;66868;42.708;23.404;2024-02-28T02:11:06;95546.22;;;8.23;81.07
77702;BME280;66868;42.708;23.404;2024-02-28T02:13:32;95550.91;;;8.32;81.24
77702;BME280;66868;42.708;23.404;2024-02-28T02:15:57;95472.28;;;7.83;80.90
77702;BME280;66868;42.708;23.404;2024-02-28T02:18:23;95554.81;;;8.39;80.79
77702;BME280;66868;42.708;23.404;2024-02-28T02:20:54;95550.72;;;8.36;81.18
77702;BME280;66868;42.708;23.404;2024-02-28T02:23:22;95558.34;;;8.35;81.06
77702;BME280;66868;42.708;23.404;2024-02-28T02:25:48;95554.31;;;8.31;81.17
77702;BME280;66868;42.708;23.404;2024-02-28T02:28:14;95552.69;;;8.28;81.02
77702;BME280;66868;42.708;23.404;2024-02-28T02:30:40;95548.56;;;8.27;81.42
77702;BME280;66868;42.708;23.404;2024-02-28T02:33:06;95547.94;;;8.22;81.33
77702;BME280;66868;42.708;23.404;2024-02-28T02:35:33;95547.94;;;8.22;81.35
77702;BME280;66868;42.708;23.404;2024-02-28T02:37:59;95548.03;;;8.19;81.36
77702;BME280;66868;42.708;23.404;2024-02-28T02:40:24;95543.13;;;8.16;81.78
77702;BME280;66868;42.708;23.404;2024-02-28T02:42:50;95530.16;;;8.05;81.87
77702;BME280;66868;42.708;23.404;2024-02-28T02:45:16;95533.44;;;8.07;81.72
77702;BME280;66868;42.708;23.404;2024-02-28T02:47:41;95555.75;;;8.16;81.65
77702;BME280;66868;42.708;23.404;2024-02-28T02:50:09;95555.69;;;8.18;81.70
77702;BME280;66868;42.708;23.404;2024-02-28T02:52:35;95557.38;;;8.17;81.75
77702;BME280;66868;42.708;23.404;2024-02-28T02:55:01;95531.78;;;8.06;81.88
77702;BME280;66868;42.708;23.404;2024-02-28T02:57:26;95558.94;;;8.20;81.50
77702;BME280;66868;42.708;23.404;2024-02-28T02:59:52;95556.63;;;8.15;82.07
77702;BME280;66868;42.708;23.404;2024-02-28T03:02:17;95548.44;;;8.10;82.23
77702;BME280;66868;42.708;23.404;2024-02-28T03:04:43;95513.47;;;7.82;82.35
77702;BME280;66868;42.708;23.404;2024-02-28T03:07:08;95542.91;;;8.02;82.30
77702;BME280;66868;42.708;23.404;2024-02-28T03:09:34;95554.63;;;8.03;82.72
77702;BME280;66868;42.708;23.404;2024-02-28T03:11:59;95546.25;;;8.03;82.70
77702;BME280;66868;42.708;23.404;2024-02-28T03:14:25;95553.75;;;8.04;82.75
77702;BME280;66868;42.708;23.404;2024-02-28T03:16:52;95551.34;;;8.01;82.99
77702;BME280;66868;42.708;23.404;2024-02-28T03:19:18;95533.00;;;7.97;82.99
77702;BME280;66868;42.708;23.404;2024-02-28T03:21:44;95527.03;;;7.80;83.45
77702;BME280;66868;42.708;23.404;2024-02-28T03:24:09;95534.38;;;7.64;84.08
77702;BME280;66868;42.708;23.404;2024-02-28T03:26:35;95553.34;;;7.73;84.08
77702;BME280;66868;42.708;23.404;2024-02-28T03:29:00;95547.94;;;7.62;84.42
77702;BME280;66868;42.708;23.404;2024-02-28T03:31:26;95561.16;;;7.67;84.56
77702;BME280;66868;42.708;23.404;2024-02-28T03:33:52;95565.31;;;7.68;84.74
77702;BME280;66868;42.708;23.404;2024-02-28T03:36:18;95567.06;;;7.66;84.68
77702;BME280;66868;42.708;23.404;2024-02-28T03:38:43;95563.03;;;7.62;84.42
77702;BME280;66868;42.708;23.404;2024-02-28T03:41:09;95566.38;;;7.62;84.82
77702;BME280;66868;42.708;23.404;2024-02-28T03:43:35;95568.81;;;7.64;84.43
77702;BME280;66868;42.708;23.404;2024-02-28T03:46:00;95560.53;;;7.62;84.69
77702;BME280;66868;42.708;23.404;2024-02-28T03:48:26;95550.44;;;7.62;84.43
77702;BME280;66868;42.708;23.404;2024-02-28T03:50:52;95566.06;;;7.70;84.08
77702;BME280;66868;42.708;23.404;2024-02-28T03:53:17;95576.78;;;7.75;83.31
77702;BME280;66868;42.708;23.404;2024-02-28T03:55:43;95560.75;;;7.55;84.01
77702;BME280;66868;42.708;23.404;2024-02-28T03:58:12;95571.06;;;7.49;83.72
77702;BME280;66868;42.708;23.404;2024-02-28T04:00:37;95551.41;;;7.37;83.98
77702;BME280;66868;42.708;23.404;2024-02-28T04:03:05;95548.47;;;7.26;84.59
77702;BME280;66868;42.708;23.404;2024-02-28T04:05:30;95564.06;;;7.36;84.71
77702;BME280;66868;42.708;23.404;2024-02-28T04:07:56;95556.84;;;7.48;83.80
77702;BME280;66868;42.708;23.404;2024-02-28T04:10:22;95534.09;;;7.30;83.33
77702;BME280;66868;42.708;23.404;2024-02-28T04:12:47;95567.56;;;7.53;83.33
77702;BME280;66868;42.708;23.404;2024-02-28T04:15:14;95566.63;;;7.56;82.91
77702;BME280;66868;42.708;23.404;2024-02-28T04:17:40;95562.81;;;7.46;83.48
77702;BME280;66868;42.708;23.404;2024-02-28T04:20:12;95565.72;;;7.15;85.50
77702;BME280;66868;42.708;23.404;2024-02-28T04:22:38;95569.16;;;7.13;85.72
77702;BME280;66868;42.708;23.404;2024-02-28T04:25:08;95562.06;;;7.22;86.76
77702;BME280;66868;42.708;23.404;2024-02-28T04:27:34;95563.72;;;7.23;87.15
77702;BME280;66868;42.708;23.404;2024-02-28T04:30:00;95559.72;;;7.18;87.11
77702;BME280;66868;42.708;23.404;2024-02-28T04:32:26;95528.47;;;7.01;87.16
77702;BME280;66868;42.708;23.404;2024-02-28T04:34:51;95561.16;;;7.25;87.11
77702;BME280;66868;42.708;23.404;2024-02-28T04:37:17;95569.41;;;7.28;86.94
77702;BME280;66868;42.708;23.404;2024-02-28T04:39:42;95565.19;;;7.29;87.44
77702;BME280;66868;42.708;23.404;2024-02-28T04:42:08;95558.50;;;7.28;87.24
77702;BME280;66868;42.708;23.404;2024-02-28T04:44:33;95501.19;;;6.91;86.83
77702;BME280;66868;42.708;23.404;2024-02-28T04:46:59;95569.22;;;7.33;86.97
77702;BME280;66868;42.708;23.404;2024-02-28T04:49:24;95577.53;;;7.35;86.83
77702;BME280;66868;42.708;23.404;2024-02-28T04:51:50;95571.03;;;7.29;86.37
77702;BME280;66868;42.708;23.404;2024-02-28T04:54:16;95573.31;;;7.35;86.34
77702;BME280;66868;42.708;23.404;2024-02-28T04:56:42;95576.53;;;7.39;86.04
77702;BME280;66868;42.708;23.404;2024-02-28T04:59:09;95553.41;;;7.29;86.39
77702;BME280;66868;42.708;23.404;2024-02-28T05:01:36;95579.63;;;7.45;86.16
77702;BME280;66868;42.708;23.404;2024-02-28T05:04:05;95578.72;;;7.48;85.79
77702;BME280;66868;42.708;23.404;2024-02-28T05:06:31;95577.75;;;7.50;85.73
77702;BME280;66868;42.708;23.404;2024-02-28T05:08:56;95582.91;;;7.47;86.05
77702;BME280;66868;42.708;23.404;2024-02-28T05:11:22;95579.75;;;7.42;86.19
77702;BME280;66868;42.708;23.404;2024-02-28T05:13:47;95588.31;;;7.38;85.58
77702;BME280;66868;42.708;23.404;2024-02-28T05:16:13;95553.66;;;7.01;86.21
77702;BME280;66868;42.708;23.404;2024-02-28T05:18:39;95592.06;;;7.28;86.34
77702;BME280;66868;42.708;23.404;2024-02-28T05:21:04;95600.91;;;7.17;86.14
77702;BME280;66868;42.708;23.404;2024-02-28T05:23:30;95610.16;;;7.16;86.26
77702;BME280;66868;42.708;23.404;2024-02-28T05:25:56;95598.25;;;7.20;86.09
77702;BME280;66868;42.708;23.404;2024-02-28T05:28:23;95617.25;;;7.28;86.57
77702;BME280;66868;42.708;23.404;2024-02-28T05:30:48;95619.41;;;7.37;86.17
77702;BME280;66868;42.708;23.404;2024-02-28T05:33:13;95625.88;;;7.44;85.99
77702;BME280;66868;42.708;23.404;2024-02-28T05:35:39;95624.88;;;7.48;86.36
77702;BME280;66868;42.708;23.404;2024-02-28T05:38:04;95625.75;;;7.47;86.67
77702;BME280;66868;42.708;23.404;2024-02-28T05:40:30;95606.13;;;7.34;87.15
77702;BME280;66868;42.708;23.404;2024-02-28T05:42:55;95595.34;;;7.30;86.63
77702;BME280;66868;42.708;23.404;2024-02-28T05:45:21;95610.56;;;7.27;86.69
77702;BME280;66868;42.708;23.404;2024-02-28T05:47:46;95640.44;;;7.36;87.03
77702;BME280;66868;42.708;23.404;2024-02-28T05:50:12;95629.38;;;7.17;87.68
77702;BME280;66868;42.708;23.404;2024-02-28T05:52:41;95642.88;;;7.16;87.91
77702;BME280;66868;42.708;23.404;2024-02-28T05:55:07;95637.06;;;7.14;88.04
77702;BME280;66868;42.708;23.404;2024-02-28T05:57:33;95625.53;;;7.08;87.64
77702;BME280;66868;42.708;23.404;2024-02-28T05:59:58;95655.66;;;7.33;88.08
77702;BME280;66868;42.708;23.404;2024-02-28T06:02:24;95653.78;;;7.38;87.99
77702;BME280;66868;42.708;23.404;2024-02-28T06:04:50;95643.72;;;7.38;88.19
77702;BME280;66868;42.708;23.404;2024-02-28T06:07:15;95651.16;;;7.41;88.34
77702;BME280;66868;42.708;23.404;2024-02-28T06:09:41;95647.81;;;7.41;87.83
77702;BME280;66868;42.708;23.404;2024-02-28T06:12:06;95608.81;;;7.29;88.02
77702;BME280;66868;42.708;23.404;2024-02-28T06:14:32;95660.72;;;7.77;88.15
77702;BME280;66868;42.708;23.404;2024-02-28T06:16:57;95656.25;;;7.83;87.89
77702;BME280;66868;42.708;23.404;2024-02-28T06:19:23;95650.28;;;7.86;87.79
77702;BME280;66868;42.708;23.404;2024-02-28T06:21:48;95668.06;;;8.03;87.78
77702;BME280;66868;42.708;23.404;2024-02-28T06:24:15;95662.66;;;8.12;87.27
77702;BME280;66868;42.708;23.404;2024-02-28T06:26:40;95665.69;;;8.20;87.13
77702;BME280;66868;42.708;23.404;2024-02-28T06:29:07;95650.56;;;8.20;87.18
77702;BME280;66868;42.708;23.404;2024-02-28T06:31:33;95669.19;;;8.38;87.43
77702;BME280;66868;42.708;23.404;2024-02-28T06:33:58;95648.53;;;8.28;87.00
77702;BME280;66868;42.708;23.404;2024-02-28T06:36:24;95648.63;;;8.27;86.73
77702;BME280;66868;42.708;23.404;2024-02-28T06:38:49;95660.41;;;8.47;86.76
77702;BME280;66868;42.708;23.404;2024-02-28T06:41:15;95662.69;;;8.53;86.96
77702;BME280;66868;42.708;23.404;2024-02-28T06:43:41;95666.25;;;8.69;86.78
77702;BME280;66868;42.708;23.404;2024-02-28T06:46:07;95634.75;;;8.57;86.26
77702;BME280;66868;42.708;23.404;2024-02-28T06:48:33;95659.00;;;8.80;86.34
77702;BME280;66868;42.708;23.404;2024-02-28T06:50:58;95671.13;;;8.92;86.26
77702;BME280;66868;42.708;23.404;2024-02-28T06:53:24;95667.84;;;8.90;86.70
77702;BME280;66868;42.708;23.404;2024-02-28T06:55:49;95653.09;;;8.81;86.66
77702;BME280;66868;42.708;23.404;2024-02-28T06:58:15;95672.63;;;8.96;86.41
77702;BME280;66868;42.708;23.404;2024-02-28T07:00:40;95671.94;;;9.11;86.55
77702;BME280;66868;42.708;23.404;2024-02-28T07:03:06;95666.78;;;9.14;86.57
77702;BME280;66868;42.708;23.404;2024-02-28T07:05:32;95668.69;;;9.28;86.49
77702;BME280;66868;42.708;23.404;2024-02-28T07:07:59;95638.53;;;9.06;86.58
77702;BME280;66868;42.708;23.404;2024-02-28T07:10:24;95667.44;;;9.37;85.99
77702;BME280;66868;42.708;23.404;2024-02-28T07:12:50;95638.91;;;9.16;86.39
77702;BME280;66868;42.708;23.404;2024-02-28T07:15:15;95631.47;;;9.31;86.71
77702;BME280;66868;42.708;23.404;2024-02-28T07:17:44;95664.84;;;9.57;86.46
77702;BME280;66868;42.708;23.404;2024-02-28T07:20:10;95650.44;;;9.59;86.38
77702;BME280;66868;42.708;23.404;2024-02-28T07:22:36;95661.47;;;9.75;85.67
77702;BME280;66868;42.708;23.404;2024-02-28T07:25:02;95639.28;;;9.63;86.39
77702;BME280;66868;42.708;23.404;2024-02-28T07:27:27;95640.09;;;9.63;85.30
77702;BME280;66868;42.708;23.404;2024-02-28T07:29:53;95655.38;;;9.79;85.95
77702;BME280;66868;42.708;23.404;2024-02-28T07:32:18;95661.44;;;9.94;84.98
77702;BME280;66868;42.708;23.404;2024-02-28T07:34:44;95664.03;;;9.92;85.06
77702;BME280;66868;42.708;23.404;2024-02-28T07:37:09;95667.91;;;9.99;85.67
77702;BME280;66868;42.708;23.404;2024-02-28T07:39:35;95672.53;;;10.08;85.50
77702;BME280;66868;42.708;23.404;2024-02-28T07:42:00;95678.09;;;10.16;85.12
77702;BME280;66868;42.708;23.404;2024-02-28T07:44:26;95673.47;;;10.25;84.54
77702;BME280;66868;42.708;23.404;2024-02-28T07:46:51;95662.47;;;10.26;83.50
77702;BME280;66868;42.708;23.404;2024-02-28T07:49:17;95668.56;;;10.39;83.22
77702;BME280;66868;42.708;23.404;2024-02-28T07:51:42;95682.63;;;10.44;84.08
77702;BME280;66868;42.708;23.404;2024-02-28T07:54:08;95673.84;;;10.51;83.01
77702;BME280;66868;42.708;23.404;2024-02-28T07:56:33;95674.19;;;10.61;83.07
77702;BME280;66868;42.708;23.404;2024-02-28T07:58:59;95677.09;;;10.71;82.53
77702;BME280;66868;42.708;23.404;2024-02-28T08:01:24;95649.16;;;10.72;81.01
77702;BME280;66868;42.708;23.404;2024-02-28T08:03:50;95650.31;;;10.82;80.59
77702;BME280;66868;42.708;23.404;2024-02-28T08:06:15;95675.47;;;11.02;80.64
77702;BME280;66868;42.708;23.404;2024-02-28T08:08:44;95648.59;;;11.00;79.82
77702;BME280;66868;42.708;23.404;2024-02-28T08:11:10;95674.59;;;11.19;80.36
77702;BME280;66868;42.708;23.404;2024-02-28T08:13:36;95653.53;;;11.19;79.53
77702;BME280;66868;42.708;23.404;2024-02-28T08:16:01;95652.88;;;11.31;81.00
77702;BME280;66868;42.708;23.404;2024-02-28T08:18:27;95658.03;;;11.45;80.52
77702;BME280;66868;42.708;23.404;2024-02-28T08:20:54;95650.41;;;11.45;80.23
77702;BME280;66868;42.708;23.404;2024-02-28T08:23:23;95658.50;;;11.67;79.48
77702;BME280;66868;42.708;23.404;2024-02-28T08:25:48;95666.72;;;11.88;79.63
77702;BME280;66868;42.708;23.404;2024-02-28T08:28:14;95669.06;;;12.07;78.46
77702;BME280;66868;42.708;23.404;2024-02-28T08:30:39;95626.59;;;11.94;77.92
77702;BME280;66868;42.708;23.404;2024-02-28T08:33:08;95668.06;;;12.39;75.96
77702;BME280;66868;42.708;23.404;2024-02-28T08:35:35;95643.66;;;12.36;75.09
77702;BME280;66868;42.708;23.404;2024-02-28T08:38:01;95668.56;;;12.60;74.84
77702;BME280;66868;42.708;23.404;2024-02-28T08:40:31;95652.50;;;12.59;73.28
77702;BME280;66868;42.708;23.404;2024-02-28T08:42:56;95663.41;;;12.75;73.53
77702;BME280;66868;42.708;23.404;2024-02-28T08:45:22;95663.03;;;12.81;72.69
77702;BME280;66868;42.708;23.404;2024-02-28T08:47:48;95657.59;;;12.88;71.86
77702;BME280;66868;42.708;23.404;2024-02-28T08:50:13;95661.06;;;12.87;72.21
77702;BME280;66868;42.708;23.404;2024-02-28T08:52:39;95649.91;;;12.89;72.16
77702;BME280;66868;42.708;23.404;2024-02-28T08:55:04;95653.34;;;12.88;72.36
77702;BME280;66868;42.708;23.404;2024-02-28T08:57:30;95632.19;;;12.88;72.28
77702;BME280;66868;42.708;23.404;2024-02-28T08:59:56;95639.28;;;12.97;72.24
77702;BME280;66868;42.708;23.404;2024-02-28T09:02:21;95629.84;;;12.99;71.10
77702;BME280;66868;42.708;23.404;2024-02-28T09:04:47;95623.47;;;12.92;71.72
77702;BME280;66868;42.708;23.404;2024-02-28T09:07:17;95642.91;;;13.07;71.39
77702;BME280;66868;42.708;23.404;2024-02-28T09:09:45;95635.75;;;13.13;71.82
77702;BME280;66868;42.708;23.404;2024-02-28T09:12:11;95638.94;;;13.17;72.12
77702;BME280;66868;42.708;23.404;2024-02-28T09:14:37;95632.03;;;13.19;71.09
77702;BME280;66868;42.708;23.404;2024-02-28T09:17:02;95639.63;;;13.33;71.44
77702;BME280;66868;42.708;23.404;2024-02-28T09:19:31;95628.19;;;13.40;70.62
77702;BME280;66868;42.708;23.404;2024-02-28T09:21:57;95611.22;;;13.41;70.02
77702;BME280;66868;42.708;23.404;2024-02-28T09:24:26;95639.00;;;13.70;69.35
77702;BME280;66868;42.708;23.404;2024-02-28T09:26:52;95638.50;;;13.78;69.25
77702;BME280;66868;42.708;23.404;2024-02-28T09:29:18;95603.97;;;13.61;68.54
77702;BME280;66868;42.708;23.404;2024-02-28T09:31:43;95644.25;;;14.08;68.02
77702;BME280;66868;42.708;23.404;2024-02-28T09:34:09;95644.09;;;14.24;66.20
77702;BME280;66868;42.708;23.404;2024-02-28T09:36:45;95641.03;;;14.32;65.73
77702;BME280;66868;42.708;23.404;2024-02-28T09:39:14;95636.19;;;14.41;65.41
77702;BME280;66868;42.708;23.404;2024-02-28T09:41:42;95634.47;;;14.54;67.05
77702;BME280;66868;42.708;23.404;2024-02-28T09:44:08;95597.06;;;14.42;65.47
77702;BME280;66868;42.708;23.404;2024-02-28T09:46:34;95635.59;;;14.76;66.14
77702;BME280;66868;42.708;23.404;2024-02-28T09:49:07;95645.19;;;14.97;65.11
77702;BME280;66868;42.708;23.404;2024-02-28T09:51:33;95640.28;;;15.07;65.17
77702;BME280;66868;42.708;23.404;2024-02-28T09:54:04;95637.38;;;15.24;63.82
77702;BME280;66868;42.708;23.404;2024-02-28T09:56:31;95610.66;;;15.17;63.65
77702;BME280;66868;42.708;23.404;2024-02-28T09:58:57;95625.00;;;15.43;63.26
77702;BME280;66868;42.708;23.404;2024-02-28T10:01:23;95612.03;;;15.46;62.97
77702;BME280;66868;42.708;23.404;2024-02-28T10:03:51;95612.81;;;15.60;62.98
77702;BME280;66868;42.708;23.404;2024-02-28T10:06:20;95582.66;;;15.54;62.20
77702;BME280;66868;42.708;23.404;2024-02-28T10:08:46;95608.53;;;15.84;60.63
77702;BME280;66868;42.708;23.404;2024-02-28T10:11:19;95619.06;;;16.03;59.36
77702;BME280;66868;42.708;23.404;2024-02-28T10:13:47;95599.56;;;16.02;58.76
77702;BME280;66868;42.708;23.404;2024-02-28T10:16:12;95542.81;;;15.75;58.44
77702;BME280;66868;42.708;23.404;2024-02-28T10:18:45;95612.72;;;16.20;58.31
77702;BME280;66868;42.708;23.404;2024-02-28T10:21:13;95614.75;;;16.27;58.07
77702;BME280;66868;42.708;23.404;2024-02-28T10:23:44;95606.50;;;16.35;57.63
77702;BME280;66868;42.708;23.404;2024-02-28T10:26:10;95587.22;;;16.31;57.35
77702;BME280;66868;42.708;23.404;2024-02-28T10:28:37;95590.59;;;16.43;56.60
77702;BME280;66868;42.708;23.404;2024-02-28T10:31:04;95597.38;;;16.55;55.65
77702;BME280;66868;42.708;23.404;2024-02-28T10:33:30;95598.31;;;16.54;55.92
77702;BME280;66868;42.708;23.404;2024-02-28T10:35:58;95594.34;;;16.50;55.61
77702;BME280;66868;42.708;23.404;2024-02-28T10:38:26;95573.91;;;16.50;56.49
77702;BME280;66868;42.708;23.404;2024-02-28T10:40:53;95582.03;;;16.55;55.73
77702;BME280;66868;42.708;23.404;2024-02-28T10:43:19;95555.53;;;16.45;55.67
77702;BME280;66868;42.708;23.404;2024-02-28T10:45:45;95580.19;;;16.57;56.05
77702;BME280;66868;42.708;23.404;2024-02-28T10:48:14;95574.06;;;16.59;56.10
77702;BME280;66868;42.708;23.404;2024-02-28T10:50:40;95567.41;;;16.57;56.01
77702;BME280;66868;42.708;23.404;2024-02-28T10:53:15;95566.88;;;16.64;56.24
77702;BME280;66868;42.708;23.404;2024-02-28T10:55:42;95556.50;;;16.55;56.98
77702;BME280;66868;42.708;23.404;2024-02-28T10:58:10;95561.16;;;16.61;57.85
77702;BME280;66868;42.708;23.404;2024-02-28T11:00:36;95563.59;;;16.85;56.93
77702;BME280;66868;42.708;23.404;2024-02-28T11:03:16;95475.84;;;16.40;56.00
77702;BME280;66868;42.708;23.404;2024-02-28T11:05:43;95560.25;;;16.95;56.82
77702;BME280;66868;42.708;23.404;2024-02-28T11:08:22;95561.38;;;17.13;55.96
77702;BME280;66868;42.708;23.404;2024-02-28T11:10:57;95552.75;;;17.26;54.39
77702;BME280;66868;42.708;23.404;2024-02-28T11:13:26;95520.34;;;17.15;54.84
77702;BME280;66868;42.708;23.404;2024-02-28T11:15:52;95450.34;;;16.94;54.45
77702;BME280;66868;42.708;23.404;2024-02-28T11:18:18;95543.97;;;17.61;55.51
77702;BME280;66868;42.708;23.404;2024-02-28T11:20:44;95547.38;;;17.83;53.71
77702;BME280;66868;42.708;23.404;2024-02-28T11:23:13;95536.94;;;17.95;53.72
77702;BME280;66868;42.708;23.404;2024-02-28T11:25:42;95532.25;;;18.00;54.87
77702;BME280;66868;42.708;23.404;2024-02-28T11:28:08;95525.34;;;18.12;54.20
77702;BME280;66868;42.708;23.404;2024-02-28T11:30:34;95528.81;;;18.32;53.95
77702;BME280;66868;42.708;23.404;2024-02-28T11:32:59;95530.13;;;18.47;53.75
77702;BME280;66868;42.708;23.404;2024-02-28T11:35:26;95527.13;;;18.63;53.04
77702;BME280;66868;42.708;23.404;2024-02-28T11:37:54;95532.84;;;18.76;51.25
77702;BME280;66868;42.708;23.404;2024-02-28T11:40:23;95530.47;;;18.93;50.72
77702;BME280;66868;42.708;23.404;2024-02-28T11:42:51;95525.09;;;18.96;50.84
77702;BME280;66868;42.708;23.404;2024-02-28T11:45:16;95523.25;;;19.08;51.35
77702;BME280;66868;42.708;23.404;2024-02-28T11:47:43;95523.81;;;19.21;50.49
77702;BME280;66868;42.708;23.404;2024-02-28T11:50:09;95516.41;;;19.28;51.26
77702;BME280;66868;42.708;23.404;2024-02-28T11:52:35;95516.13;;;19.40;50.43
77702;BME280;66868;42.708;23.404;2024-02-28T11:55:00;95512.25;;;19.46;49.97
77702;BME280;66868;42.708;23.404;2024-02-28T11:57:26;95508.34;;;19.61;48.23
77702;BME280;66868;42.708;23.404;2024-02-28T11:59:51;95499.41;;;19.65;48.60
77702;BME280;66868;42.708;23.404;2024-02-28T12:02:17;95490.63;;;19.77;47.77
77702;BME280;66868;42.708;23.404;2024-02-28T12:04:44;95483.31;;;19.82;46.94
77702;BME280;66868;42.708;23.404;2024-02-28T12:07:10;95492.34;;;20.06;47.00
77702;BME280;66868;42.708;23.404;2024-02-28T12:09:36;95506.78;;;20.26;47.07
77702;BME280;66868;42.708;23.404;2024-02-28T12:12:02;95482.03;;;20.25;46.54
77702;BME280;66868;42.708;23.404;2024-02-28T12:14:31;95490.38;;;20.46;46.84
77702;BME280;66868;42.708;23.404;2024-02-28T12:16:57;95493.72;;;20.66;46.66
77702;BME280;66868;42.708;23.404;2024-02-28T12:19:24;95491.19;;;20.84;44.45
77702;BME280;66868;42.708;23.404;2024-02-28T12:21:49;95490.72;;;20.98;44.04
77702;BME280;66868;42.708;23.404;2024-02-28T12:24:15;95490.34;;;21.20;44.22
77702;BME280;66868;42.708;23.404;2024-02-28T12:26:41;95476.72;;;21.28;43.67
77702;BME280;66868;42.708;23.404;2024-02-28T12:29:07;95466.06;;;21.40;43.68
77702;BME280;66868;42.708;23.404;2024-02-28T12:31:32;95470.09;;;21.60;41.86
77702;BME280;66868;42.708;23.404;2024-02-28T12:33:58;95476.72;;;21.81;42.42
77702;BME280;66868;42.708;23.404;2024-02-28T12:36:24;95481.28;;;21.87;42.12
77702;BME280;66868;42.708;23.404;2024-02-28T12:38:50;95482.09;;;22.05;42.14
77702;BME280;66868;42.708;23.404;2024-02-28T12:41:16;95468.00;;;22.17;41.74
77702;BME280;66868;42.708;23.404;2024-02-28T12:43:42;95490.09;;;22.45;40.94
77702;BME280;66868;42.708;23.404;2024-02-28T12:46:08;95485.34;;;22.67;40.36
77702;BME280;66868;42.708;23.404;2024-02-28T12:48:38;95487.72;;;22.86;40.16
77702;BME280;66868;42.708;23.404;2024-02-28T12:51:04;95469.34;;;22.89;38.70